Time;durP1;ratioP1;P1;durP2;ratioP2;P2;SDS_P1;SDS_P2;PMS_P1;PMS_P2;Temp;Humidity;BMP_temperature;BMP_pressure;BME280_temperature;BME280_humidity;BME280_pressure;Samples;Min_cycle;Max_cycle;Signal;HPM_P1;HPM_P2
2022/09/01 00:01:46;;;;;;;2.28;1.73;;;17.30;99.90;;;;;;5007183;28;20030;-78
2022/09/01 00:04:15;;;;;;;4.80;1.85;;;17.20;99.90;;;;;;5005385;28;20025;-78
2022/09/01 00:06:42;;;;;;;2.45;1.67;;;17.20;99.90;;;;;;5011380;28;20033;-78
2022/09/01 00:09:12;;;;;;;4.63;1.65;;;17.20;99.90;;;;;;5011757;28;20018;-78
2022/09/01 00:11:40;;;;;;;2.45;1.67;;;17.20;99.90;;;;;;5006643;28;20033;-78
2022/09/01 00:14:08;;;;;;;4.88;1.70;;;17.20;99.90;;;;;;5002685;28;20030;-77
2022/09/01 00:16:34;;;;;;;4.35;1.60;;;17.10;99.90;;;;;;5011531;28;20029;-77
2022/09/01 00:19:00;;;;;;;5.38;1.75;;;17.10;99.90;;;;;;5011060;28;20026;-77
2022/09/01 00:21:30;;;;;;;5.45;2.10;;;17.10;99.90;;;;;;5011394;28;20061;-77
2022/09/01 00:23:55;;;;;;;4.45;2.08;;;17.10;99.90;;;;;;5011198;28;20541;-77
2022/09/01 00:26:21;;;;;;;3.22;1.90;;;17.00;99.90;;;;;;5010948;28;20030;-77
2022/09/01 00:28:46;;;;;;;3.42;1.80;;;17.00;99.90;;;;;;5011162;28;20092;-78
2022/09/01 00:31:13;;;;;;;3.25;1.90;;;17.00;99.90;;;;;;5011592;28;20021;-78
2022/09/01 00:33:39;;;;;;;4.03;2.20;;;17.00;99.90;;;;;;5006236;28;20022;-78
2022/09/01 00:36:06;;;;;;;3.10;1.58;;;16.90;99.90;;;;;;4997655;28;20036;-77
2022/09/01 00:38:32;;;;;;;4.10;1.67;;;16.90;99.90;;;;;;5011157;28;20022;-78
2022/09/01 00:40:59;;;;;;;3.97;1.85;;;16.90;99.90;;;;;;5010981;28;20072;-77
2022/09/01 00:43:41;;;;;;;5.07;2.03;;;16.90;99.90;;;;;;5011016;28;20486;-77
2022/09/01 00:46:11;;;;;;;3.65;1.90;;;16.80;99.90;;;;;;4997441;28;20026;-77
2022/09/01 00:48:37;;;;;;;3.78;1.80;;;16.80;99.90;;;;;;5011024;28;20033;-77
2022/09/01 00:51:06;;;;;;;3.95;1.65;;;16.80;99.90;;;;;;5011017;28;20068;-77
2022/09/01 00:53:33;;;;;;;2.75;2.00;;;16.80;99.90;;;;;;5010823;28;20044;-77
2022/09/01 00:55:58;;;;;;;4.20;1.95;;;16.80;99.90;;;;;;5009451;28;20080;-78
2022/09/01 00:58:25;;;;;;;3.92;2.08;;;16.70;99.90;;;;;;5010816;28;20513;-78
2022/09/01 01:00:51;;;;;;;4.55;2.17;;;16.70;99.90;;;;;;5010973;28;20186;-78
2022/09/01 01:03:18;;;;;;;5.65;2.10;;;16.70;99.90;;;;;;4997449;28;20026;-78
2022/09/01 01:05:52;;;;;;;3.78;1.90;;;16.60;99.90;;;;;;5010879;28;20405;-78
2022/09/01 01:08:33;;;;;;;3.58;1.77;;;16.60;99.90;;;;;;5010867;28;20501;-78
2022/09/01 01:11:05;;;;;;;3.92;2.08;;;16.60;99.90;;;;;;5010970;28;20036;-77
2022/09/01 01:13:34;;;;;;;7.05;2.38;;;16.50;99.90;;;;;;5010727;28;20080;-77
2022/09/01 01:16:02;;;;;;;5.72;1.90;;;16.50;99.90;;;;;;5010857;28;20454;-78
2022/09/01 01:18:28;;;;;;;3.58;1.90;;;16.50;99.90;;;;;;5005951;28;20127;-78
2022/09/01 01:24:05;;;;;;;3.78;1.88;;;16.40;99.90;;;;;;4989386;28;20046;-78
2022/09/01 01:26:31;;;;;;;3.15;1.92;;;16.40;99.90;;;;;;5010971;28;20033;-77
2022/09/01 01:28:57;;;;;;;5.45;1.90;;;16.30;99.90;;;;;;5010506;28;20088;-77
2022/09/01 01:31:23;;;;;;;5.25;2.25;;;16.40;99.90;;;;;;5012476;28;20073;-78
2022/09/01 01:33:56;;;;;;;4.78;2.00;;;16.30;99.90;;;;;;5009488;28;20027;-78
2022/09/01 01:36:30;;;;;;;5.97;2.13;;;16.30;99.90;;;;;;5006733;28;20018;-78
2022/09/01 01:39:02;;;;;;;5.68;2.30;;;16.30;99.90;;;;;;5010150;28;20089;-78
2022/09/01 01:41:30;;;;;;;5.28;2.08;;;16.30;99.90;;;;;;5004593;28;20034;-78
2022/09/01 01:43:58;;;;;;;5.30;2.20;;;16.30;99.90;;;;;;5008961;28;20042;-78
2022/09/01 01:46:25;;;;;;;5.82;2.08;;;16.30;99.90;;;;;;5012634;28;20030;-77
2022/09/01 01:48:52;;;;;;;4.85;2.10;;;16.20;99.90;;;;;;5013738;28;20376;-78
2022/09/01 01:51:23;;;;;;;5.32;2.17;;;16.20;99.90;;;;;;5011185;28;20018;-77
2022/09/01 01:53:51;;;;;;;3.92;2.30;;;16.20;99.90;;;;;;5013700;28;20030;-78
2022/09/01 01:56:18;;;;;;;5.03;2.40;;;16.30;99.90;;;;;;5008841;28;20022;-77
2022/09/01 01:58:44;;;;;;;5.97;2.20;;;16.20;99.90;;;;;;5014479;28;20037;-77
2022/09/01 02:01:11;;;;;;;6.38;2.10;;;16.20;99.90;;;;;;5002137;28;20030;-77
2022/09/01 02:03:37;;;;;;;7.93;2.30;;;16.10;99.90;;;;;;5012540;28;20018;-77
2022/09/01 02:06:08;;;;;;;5.20;2.50;;;16.10;99.90;;;;;;5004047;28;20035;-77
2022/09/01 02:08:36;;;;;;;8.05;2.50;;;16.10;99.90;;;;;;5011188;28;20018;-78
2022/09/01 02:11:04;;;;;;;5.38;2.13;;;16.10;99.90;;;;;;5014084;28;20033;-77
2022/09/01 02:13:30;;;;;;;4.07;2.10;;;16.10;99.90;;;;;;4998231;28;20500;-77
2022/09/01 02:15:59;;;;;;;5.32;2.30;;;16.10;99.90;;;;;;5001861;28;20030;-77
2022/09/01 02:18:36;;;;;;;8.25;2.47;;;16.10;99.90;;;;;;5013768;28;20061;-77
2022/09/01 02:21:08;;;;;;;5.35;2.10;;;16.10;99.90;;;;;;4994885;28;20031;-77
2022/09/01 02:23:34;;;;;;;6.57;2.30;;;16.00;99.90;;;;;;4994225;28;20089;-77
2022/09/01 02:26:01;;;;;;;5.60;2.30;;;16.00;99.90;;;;;;4993903;28;20387;-77
2022/09/01 02:28:30;;;;;;;6.35;2.40;;;16.00;99.90;;;;;;4994172;28;20026;-77
2022/09/01 02:30:58;;;;;;;5.45;2.33;;;16.00;99.90;;;;;;5012458;28;20461;-77
2022/09/01 02:33:27;;;;;;;6.30;2.40;;;15.90;99.90;;;;;;5004410;28;20041;-77
2022/09/01 02:36:02;;;;;;;6.60;2.58;;;15.90;99.90;;;;;;5013714;28;20022;-77
2022/09/01 02:38:28;;;;;;;5.20;2.20;;;15.90;99.90;;;;;;5013880;28;20083;-77
2022/09/01 02:40:57;;;;;;;3.83;2.30;;;15.80;99.90;;;;;;5010304;28;20509;-77
2022/09/01 02:43:26;;;;;;;4.72;2.00;;;15.80;99.90;;;;;;4993853;28;20414;-77
2022/09/01 02:45:53;;;;;;;9.07;2.45;;;15.80;99.90;;;;;;5008780;28;20046;-77
2022/09/01 02:48:23;;;;;;;6.90;2.20;;;15.80;99.90;;;;;;5005996;28;20592;-77
2022/09/01 02:50:49;;;;;;;5.05;2.25;;;15.80;99.90;;;;;;5007630;28;20513;-77
2022/09/01 02:53:15;;;;;;;7.32;2.20;;;15.70;99.90;;;;;;4999800;28;20478;-76
2022/09/01 02:55:42;;;;;;;4.30;2.58;;;15.70;99.90;;;;;;5012971;28;20422;-77
2022/09/01 02:58:18;;;;;;;4.32;2.08;;;15.70;99.90;;;;;;5013041;28;20029;-78
2022/09/01 03:00:44;;;;;;;7.75;2.58;;;15.70;99.90;;;;;;5011898;28;20367;-77
2022/09/01 03:03:11;;;;;;;7.13;2.40;;;15.70;99.90;;;;;;5013120;28;20141;-77
2022/09/01 03:05:38;;;;;;;4.22;2.28;;;15.70;99.90;;;;;;5003779;28;20122;-77
2022/09/01 03:08:09;;;;;;;6.57;2.67;;;15.70;99.90;;;;;;5008343;28;20041;-76
2022/09/01 03:10:40;;;;;;;4.00;2.28;;;15.70;99.90;;;;;;5004808;28;20015;-76
2022/09/01 03:13:08;;;;;;;4.95;2.22;;;15.70;99.90;;;;;;5007816;28;20029;-77
2022/09/01 03:15:36;;;;;;;4.28;2.55;;;15.70;99.90;;;;;;5011368;28;20057;-76
2022/09/01 03:18:04;;;;;;;7.30;2.25;;;15.70;99.90;;;;;;5012738;28;20101;-77
2022/09/01 03:20:32;;;;;;;4.47;2.38;;;15.70;99.90;;;;;;5012887;28;20022;-76
2022/09/01 03:23:03;;;;;;;5.03;2.35;;;15.70;99.90;;;;;;5000956;28;20077;-77
2022/09/01 03:25:30;;;;;;;5.28;2.40;;;15.70;99.90;;;;;;4992717;28;20018;-77
2022/09/01 03:28:00;;;;;;;9.93;2.63;;;15.70;99.90;;;;;;5003869;28;20026;-76
2022/09/01 03:30:31;;;;;;;5.35;2.60;;;15.70;99.90;;;;;;4995370;28;20073;-76
2022/09/01 03:32:57;;;;;;;3.70;2.30;;;15.70;99.90;;;;;;5002867;28;20029;-77
2022/09/01 03:35:24;;;;;;;5.15;2.03;;;15.60;99.90;;;;;;5009968;28;20410;-77
2022/09/01 03:37:51;;;;;;;5.43;2.72;;;15.60;99.90;;;;;;5001121;28;20371;-77
2022/09/01 03:40:17;;;;;;;4.90;2.60;;;15.60;99.90;;;;;;5012318;28;20030;-76
2022/09/01 03:42:43;;;;;;;4.70;2.50;;;15.60;99.90;;;;;;5005808;28;20065;-77
2022/09/01 03:45:11;;;;;;;5.80;2.55;;;15.60;99.90;;;;;;4992483;28;20043;-77
2022/09/01 03:47:39;;;;;;;5.40;2.63;;;15.50;99.90;;;;;;5006341;28;20033;-76
2022/09/01 03:50:19;;;;;;;4.15;2.63;;;15.50;99.90;;;;;;5003670;28;20084;-76
2022/09/01 03:52:57;;;;;;;3.90;2.40;;;15.50;99.90;;;;;;5011687;28;20057;-77
2022/09/01 03:55:29;;;;;;;5.35;2.53;;;15.50;99.90;;;;;;5012136;28;20018;-76
2022/09/01 03:57:59;;;;;;;6.13;2.50;;;15.50;99.90;;;;;;5010123;28;20037;-77
2022/09/01 04:00:28;;;;;;;4.05;2.42;;;15.50;99.90;;;;;;5000811;28;20053;-77
2022/09/01 04:02:56;;;;;;;6.18;2.70;;;15.40;99.90;;;;;;5011159;28;20037;-77
2022/09/01 04:05:23;;;;;;;4.55;2.60;;;15.40;99.90;;;;;;4992590;28;20015;-77
2022/09/01 04:07:50;;;;;;;3.97;2.33;;;15.40;99.90;;;;;;5005469;28;20135;-76
2022/09/01 04:10:17;;;;;;;6.30;2.90;;;15.40;99.90;;;;;;5006644;28;20022;-77
2022/09/01 04:12:44;;;;;;;3.95;2.50;;;15.40;99.90;;;;;;5003556;28;20033;-77
2022/09/01 04:15:11;;;;;;;5.03;2.45;;;15.40;99.90;;;;;;5011840;28;20026;-77
2022/09/01 04:20:22;;;;;;;7.75;2.63;;;15.40;99.90;;;;;;5010550;28;20036;-77
2022/09/01 04:22:51;;;;;;;4.70;2.50;;;15.40;99.90;;;;;;5011949;28;20014;-78
2022/09/01 04:25:22;;;;;;;5.95;2.88;;;15.30;99.90;;;;;;5011385;28;20010;-78
2022/09/01 04:27:49;;;;;;;5.15;2.40;;;15.30;99.90;;;;;;5011653;28;20085;-77
2022/09/01 04:30:15;;;;;;;4.55;2.10;;;15.30;99.90;;;;;;5010521;28;20049;-78
2022/09/01 04:32:45;;;;;;;5.22;2.60;;;15.30;99.90;;;;;;5003598;28;20128;-77
2022/09/01 04:35:15;;;;;;;5.05;2.67;;;15.30;99.90;;;;;;4999070;28;20065;-76
2022/09/01 04:37:42;;;;;;;4.75;2.67;;;15.30;99.90;;;;;;5010241;28;20044;-76
2022/09/01 04:40:08;;;;;;;10.13;2.70;;;15.30;99.90;;;;;;4996972;28;20153;-76
2022/09/01 04:42:34;;;;;;;3.63;2.70;;;15.20;99.90;;;;;;5006877;28;20026;-76
2022/09/01 04:45:03;;;;;;;6.32;3.05;;;15.20;99.90;;;;;;5011004;28;20387;-77
2022/09/01 04:47:28;;;;;;;8.70;2.92;;;15.20;99.90;;;;;;5011285;28;20026;-77
2022/09/01 04:49:59;;;;;;;5.95;2.83;;;15.20;99.90;;;;;;4997786;28;20371;-76
2022/09/01 04:52:26;;;;;;;4.10;2.78;;;15.20;99.90;;;;;;5008260;28;20037;-76
2022/09/01 04:54:53;;;;;;;4.85;2.95;;;15.20;99.90;;;;;;5009799;28;20434;-77
2022/09/01 04:57:19;;;;;;;5.03;2.95;;;15.20;99.90;;;;;;5010218;28;20022;-78
2022/09/01 04:59:45;;;;;;;6.30;3.28;;;15.20;99.90;;;;;;5010440;28;20437;-78
2022/09/01 05:02:11;;;;;;;4.82;3.13;;;15.10;99.90;;;;;;5009381;28;20026;-78
2022/09/01 05:04:43;;;;;;;6.25;3.33;;;15.10;99.90;;;;;;5009194;28;20379;-78
2022/09/01 05:07:09;;;;;;;6.70;3.35;;;15.10;99.90;;;;;;5009472;28;20034;-79
2022/09/01 05:09:36;;;;;;;7.65;3.50;;;15.10;99.90;;;;;;5009520;28;20029;-79
2022/09/01 05:12:14;;;;;;;11.88;3.13;;;15.10;99.90;;;;;;5005247;28;20068;-79
2022/09/01 05:14:42;;;;;;;4.32;3.05;;;15.10;99.90;;;;;;5012042;28;20057;-79
2022/09/01 05:17:13;;;;;;;14.52;3.80;;;15.10;99.90;;;;;;5015817;28;20025;-77
2022/09/01 05:19:42;;;;;;;9.95;3.25;;;15.10;99.90;;;;;;5018756;28;20022;-77
2022/09/01 05:22:09;;;;;;;6.35;3.33;;;15.10;99.90;;;;;;5015812;28;20037;-78
2022/09/01 05:24:36;;;;;;;6.43;3.28;;;15.10;99.90;;;;;;5012021;28;20026;-77
2022/09/01 05:27:04;;;;;;;8.25;3.10;;;15.10;99.90;;;;;;5011268;28;20037;-77
2022/09/01 05:29:30;;;;;;;5.78;3.30;;;15.10;99.90;;;;;;5005528;28;20037;-77
2022/09/01 05:31:57;;;;;;;6.78;3.13;;;15.10;99.90;;;;;;5007166;28;20030;-77
2022/09/01 05:34:26;;;;;;;7.28;3.10;;;15.10;99.90;;;;;;5007558;28;20359;-78
2022/09/01 05:36:56;;;;;;;6.70;3.40;;;15.20;99.90;;;;;;5005333;28;20022;-77
2022/09/01 05:39:22;;;;;;;7.28;3.53;;;15.20;99.90;;;;;;5008029;28;20022;-77
2022/09/01 05:41:48;;;;;;;5.97;3.35;;;15.20;99.90;;;;;;5008699;28;20041;-78
2022/09/01 05:44:15;;;;;;;6.18;3.20;;;15.20;99.90;;;;;;5001020;28;20200;-77
2022/09/01 05:46:43;;;;;;;4.80;3.15;;;15.20;99.90;;;;;;5009440;28;20042;-77
2022/09/01 05:49:15;;;;;;;5.85;3.38;;;15.20;99.90;;;;;;5009195;28;20069;-77
2022/09/01 05:51:43;;;;;;;6.93;3.13;;;15.30;99.90;;;;;;4996129;28;20050;-77
2022/09/01 05:54:10;;;;;;;5.60;3.47;;;15.30;99.90;;;;;;5005567;28;20036;-76
2022/09/01 05:56:39;;;;;;;11.43;3.42;;;15.30;99.90;;;;;;5009636;28;20482;-76
2022/09/01 05:59:04;;;;;;;7.60;3.33;;;15.30;99.90;;;;;;5010215;28;20021;-76
2022/09/01 06:01:32;;;;;;;6.28;3.00;;;15.30;99.90;;;;;;5007263;28;20034;-77
2022/09/01 06:03:59;;;;;;;4.88;3.33;;;15.30;99.90;;;;;;5000273;28;20365;-76
2022/09/01 06:06:29;;;;;;;6.72;3.40;;;15.30;99.90;;;;;;4996716;28;20037;-76
2022/09/01 06:08:58;;;;;;;9.35;3.70;;;15.30;99.90;;;;;;5010691;28;20030;-77
2022/09/01 06:11:25;;;;;;;7.85;3.38;;;15.30;99.90;;;;;;5010254;28;20030;-76
2022/09/01 06:13:54;;;;;;;6.82;3.13;;;15.30;99.90;;;;;;5005851;28;20033;-79
2022/09/01 06:16:20;;;;;;;7.15;3.20;;;15.40;99.90;;;;;;5008822;28;20560;-76
2022/09/01 06:18:46;;;;;;;6.63;3.38;;;15.40;99.90;;;;;;5009631;28;20077;-76
2022/09/01 06:21:13;;;;;;;5.30;3.20;;;15.40;99.90;;;;;;5013292;28;20021;-77
2022/09/01 06:23:41;;;;;;;5.90;3.03;;;15.50;99.90;;;;;;5014275;28;20018;-77
2022/09/01 06:26:16;;;;;;;4.85;2.88;;;15.50;99.90;;;;;;5011696;28;20121;-76
2022/09/01 06:28:42;;;;;;;6.75;3.03;;;15.50;99.90;;;;;;5012652;28;20041;-76
2022/09/01 06:31:08;;;;;;;4.03;3.00;;;15.50;99.90;;;;;;5012728;28;20030;-76
2022/09/01 06:33:34;;;;;;;7.68;3.10;;;15.60;99.90;;;;;;5011583;28;20032;-77
2022/09/01 06:36:02;;;;;;;5.35;2.90;;;15.60;99.90;;;;;;5011125;28;20243;-77
2022/09/01 06:38:28;;;;;;;8.60;3.35;;;15.60;99.90;;;;;;5010881;28;20041;-77
2022/09/01 06:41:11;;;;;;;3.58;3.20;;;15.70;99.90;;;;;;5010606;28;20092;-76
2022/09/01 06:43:40;;;;;;;5.68;3.30;;;15.70;99.90;;;;;;5011870;28;20145;-77
2022/09/01 06:46:08;;;;;;;6.18;3.40;;;15.70;99.90;;;;;;5009071;28;20113;-77
2022/09/01 06:48:35;;;;;;;8.38;3.30;;;15.70;99.90;;;;;;5012205;28;20471;-77
2022/09/01 06:51:02;;;;;;;10.90;3.42;;;15.70;99.90;;;;;;5009551;28;20041;-77
2022/09/01 06:53:33;;;;;;;4.15;3.10;;;15.80;99.90;;;;;;5008870;28;20097;-76
2022/09/01 06:55:59;;;;;;;7.60;3.38;;;15.80;99.90;;;;;;5011121;28;20144;-77
2022/09/01 06:58:24;;;;;;;7.63;3.35;;;15.80;99.90;;;;;;5008238;28;20018;-76
2022/09/01 07:00:50;;;;;;;3.70;2.83;;;15.90;99.90;;;;;;5011008;28;20029;-77
2022/09/01 07:03:16;;;;;;;8.45;3.42;;;15.90;99.90;;;;;;5011446;28;20370;-77
2022/09/01 07:05:46;;;;;;;5.85;3.33;;;16.00;99.90;;;;;;5009511;28;20277;-77
2022/09/01 07:08:20;;;;;;;6.47;3.25;;;16.00;99.90;;;;;;5010855;28;20105;-77
2022/09/01 07:10:49;;;;;;;7.35;3.47;;;16.00;99.90;;;;;;5006825;28;20073;-77
2022/09/01 07:13:24;;;;;;;8.40;3.85;;;16.10;99.90;;;;;;5010963;28;20343;-77
2022/09/01 07:15:51;;;;;;;6.57;3.22;;;16.20;99.90;;;;;;5008781;28;20455;-77
2022/09/01 07:18:20;;;;;;;7.47;3.03;;;16.20;99.90;;;;;;5008045;28;20482;-77
2022/09/01 07:20:47;;;;;;;7.15;3.50;;;16.30;99.90;;;;;;5008245;28;20026;-77
2022/09/01 07:23:15;;;;;;;5.53;3.22;;;16.40;99.90;;;;;;5010810;28;20021;-77
2022/09/01 07:25:44;;;;;;;5.97;3.42;;;16.40;99.90;;;;;;5007910;28;20022;-77
2022/09/01 07:28:12;;;;;;;7.20;3.10;;;16.50;99.90;;;;;;5009567;28;20088;-77
2022/09/01 07:30:50;;;;;;;7.50;3.22;;;16.60;99.90;;;;;;5010296;28;20022;-77
2022/09/01 07:33:19;;;;;;;5.93;3.30;;;16.70;99.90;;;;;;5010165;28;20482;-77
2022/09/01 07:35:45;;;;;;;6.68;3.28;;;16.90;99.90;;;;;;5008015;28;20034;-78
2022/09/01 07:38:12;;;;;;;5.50;3.30;;;17.00;99.90;;;;;;5008604;28;20041;-76
2022/09/01 07:40:39;;;;;;;5.90;3.15;;;17.10;99.90;;;;;;5008073;28;20022;-76
2022/09/01 07:45:27;;;;;;;6.28;3.30;;;17.20;99.90;;;;;;5065593;28;20445;-75
2022/09/01 07:47:53;;;;;;;9.95;3.47;;;17.50;99.90;;;;;;5065831;28;20476;-75
2022/09/01 07:50:19;;;;;;;5.13;3.00;;;17.60;99.90;;;;;;5056578;28;20056;-75
2022/09/01 07:52:48;;;;;;;4.50;2.88;;;17.70;99.90;;;;;;5058747;28;20013;-75
2022/09/01 07:55:15;;;;;;;7.32;3.00;;;17.90;99.90;;;;;;5063933;28;20016;-75
2022/09/01 07:57:42;;;;;;;6.38;3.33;;;18.00;99.90;;;;;;5051925;28;20028;-75
2022/09/01 08:00:13;;;;;;;5.32;3.10;;;18.20;99.90;;;;;;5058056;28;20083;-75
2022/09/01 08:02:40;;;;;;;4.78;3.05;;;18.30;99.90;;;;;;5061827;28;20481;-77
2022/09/01 08:05:08;;;;;;;7.07;3.00;;;18.40;99.90;;;;;;5049677;28;20021;-75
2022/09/01 08:07:37;;;;;;;7.95;3.05;;;18.60;99.90;;;;;;5049904;28;20017;-77
2022/09/01 08:10:05;;;;;;;6.50;3.20;;;18.80;99.90;;;;;;5062040;28;20024;-77
2022/09/01 08:12:31;;;;;;;4.50;2.78;;;18.90;99.90;;;;;;5068099;28;20017;-75
2022/09/01 08:14:57;;;;;;;10.20;3.25;;;19.10;99.90;;;;;;5067833;28;20078;-75
2022/09/01 08:17:22;;;;;;;7.78;2.50;;;19.20;99.90;;;;;;5066669;28;20029;-76
2022/09/01 08:19:48;;;;;;;4.65;2.80;;;19.40;99.90;;;;;;5064596;28;20116;-77
2022/09/01 08:22:14;;;;;;;6.28;2.53;;;19.50;99.90;;;;;;5066360;28;20111;-77
2022/09/01 08:24:40;;;;;;;6.15;2.50;;;19.70;99.90;;;;;;5060467;28;20028;-77
2022/09/01 08:27:05;;;;;;;4.45;2.40;;;19.80;99.90;;;;;;5058981;28;20056;-77
2022/09/01 08:29:31;;;;;;;9.45;2.50;;;20.00;99.90;;;;;;5059041;28;20020;-77
2022/09/01 08:31:57;;;;;;;4.25;2.40;;;20.10;99.90;;;;;;5056420;28;20059;-77
2022/09/01 08:34:24;;;;;;;7.38;2.70;;;20.20;99.50;;;;;;5061833;28;20033;-77
2022/09/01 08:36:50;;;;;;;4.25;2.35;;;20.20;99.10;;;;;;5062985;28;20116;-77
2022/09/01 08:39:15;;;;;;;7.10;2.45;;;20.40;98.90;;;;;;5063791;28;20124;-77
2022/09/01 08:41:50;;;;;;;7.05;2.50;;;20.50;98.70;;;;;;5061871;28;20086;-77
2022/09/01 08:44:33;;;;;;;5.40;2.60;;;20.60;98.40;;;;;;5059743;28;20139;-77
2022/09/01 08:47:13;;;;;;;4.47;2.60;;;20.80;98.30;;;;;;5063623;28;20025;-77
2022/09/01 08:49:44;;;;;;;5.75;2.40;;;21.00;98.00;;;;;;5058394;28;20116;-77
2022/09/01 08:52:12;;;;;;;8.00;2.80;;;21.20;97.80;;;;;;5058745;28;20033;-76
2022/09/01 08:54:45;;;;;;;4.68;2.50;;;21.40;97.20;;;;;;5051063;28;20112;-77
2022/09/01 08:57:30;;;;;;;5.63;2.83;;;21.50;96.60;;;;;;5047773;28;20481;-77
2022/09/01 08:59:56;;;;;;;6.32;2.20;;;21.60;96.30;;;;;;5045868;28;20063;-77
2022/09/01 09:02:53;;;;;;;6.18;2.38;;;21.70;96.10;;;;;;5046763;28;20053;-77
2022/09/01 09:05:33;;;;;;;5.35;2.10;;;22.00;95.40;;;;;;5046401;28;20135;-77
2022/09/01 09:08:23;;;;;;;3.15;2.00;;;22.00;94.80;;;;;;5046286;28;20025;-76
2022/09/01 09:11:17;;;;;;;7.20;2.22;;;22.20;94.70;;;;;;5046879;28;20021;-76
2022/09/01 09:14:04;;;;;;;7.38;2.10;;;22.40;94.20;;;;;;5049086;28;20111;-77
2022/09/01 09:16:36;;;;;;;5.70;2.10;;;22.50;93.60;;;;;;5044812;28;20032;-77
2022/09/01 09:19:22;;;;;;;4.32;2.35;;;22.60;93.40;;;;;;5046881;28;20021;-76
2022/09/01 09:21:50;;;;;;;4.95;2.55;;;22.70;92.70;;;;;;5041868;28;20111;-76
2022/09/01 09:24:27;;;;;;;3.45;2.03;;;22.80;92.40;;;;;;5046190;28;20131;-77
2022/09/01 09:26:57;;;;;;;5.35;2.30;;;22.90;91.80;;;;;;5045157;28;20017;-76
2022/09/01 09:29:24;;;;;;;3.45;1.88;;;22.90;91.80;;;;;;5049887;28;20017;-76
2022/09/01 09:32:05;;;;;;;5.85;2.60;;;23.00;91.40;;;;;;5036944;28;20428;-76
2022/09/01 09:34:37;;;;;;;5.38;2.38;;;23.20;90.70;;;;;;5036647;28;20013;-76
2022/09/01 09:37:35;;;;;;;3.95;1.80;;;23.10;90.30;;;;;;5037366;28;20025;-76
2022/09/01 09:40:09;;;;;;;3.08;1.85;;;23.30;90.30;;;;;;5009553;28;20250;-76
2022/09/01 09:42:38;;;;;;;6.57;2.60;;;23.50;90.20;;;;;;5032493;28;20029;-76
2022/09/01 09:45:21;;;;;;;4.25;2.30;;;23.60;88.70;;;;;;5045585;28;20029;-76
2022/09/01 09:47:47;;;;;;;2.42;2.00;;;23.60;88.00;;;;;;5039268;28;20045;-76
2022/09/01 09:50:21;;;;;;;7.63;2.20;;;23.70;86.50;;;;;;5042819;28;20048;-76
2022/09/01 09:52:49;;;;;;;6.13;2.40;;;23.70;85.90;;;;;;5038045;28;20053;-76
2022/09/01 09:55:27;;;;;;;7.22;1.90;;;23.80;85.90;;;;;;5048498;28;20452;-76
2022/09/01 09:58:00;;;;;;;7.38;2.08;;;23.90;85.20;;;;;;5043760;28;20067;-76
2022/09/01 10:00:32;;;;;;;4.53;1.70;;;24.00;84.60;;;;;;5039726;28;20037;-76
2022/09/01 10:03:08;;;;;;;3.85;1.70;;;24.20;84.00;;;;;;5045384;28;20071;-76
2022/09/01 10:05:37;;;;;;;4.20;1.70;;;24.30;83.40;;;;;;5044913;28;20044;-76
2022/09/01 10:08:07;;;;;;;4.22;1.48;;;24.40;82.50;;;;;;5038575;28;20052;-76
2022/09/01 10:10:42;;;;;;;4.85;1.58;;;24.50;82.90;;;;;;5045153;28;20021;-76
2022/09/01 10:13:12;;;;;;;7.22;1.70;;;24.70;79.70;;;;;;5044262;28;20052;-76
2022/09/01 10:15:40;;;;;;;3.30;1.67;;;24.70;78.30;;;;;;5043908;28;20021;-76
2022/09/01 10:18:13;;;;;;;3.67;1.60;;;24.70;77.30;;;;;;5031604;28;20032;-76
2022/09/01 10:20:48;;;;;;;8.05;1.52;;;24.70;76.90;;;;;;5019184;28;20337;-76
2022/09/01 10:23:14;;;;;;;3.75;1.65;;;24.80;76.20;;;;;;5031473;28;20052;-76
2022/09/01 10:25:41;;;;;;;2.30;1.42;;;24.90;76.00;;;;;;5031792;28;20026;-76
2022/09/01 10:28:22;;;;;;;4.20;1.50;;;25.00;75.80;;;;;;5031793;28;20032;-76
2022/09/01 10:30:49;;;;;;;5.32;1.30;;;25.10;74.70;;;;;;5018512;28;20056;-76
2022/09/01 10:33:20;;;;;;;2.50;1.38;;;25.20;73.60;;;;;;5031553;28;20451;-76
2022/09/01 10:35:50;;;;;;;6.97;1.50;;;25.20;71.70;;;;;;5036622;28;20017;-76
2022/09/01 10:38:27;;;;;;;3.88;1.30;;;25.20;71.00;;;;;;5040109;28;20041;-75
2022/09/01 10:41:07;;;;;;;4.45;1.33;;;25.20;70.90;;;;;;5037679;28;20500;-75
2022/09/01 10:43:37;;;;;;;2.78;1.20;;;25.30;70.40;;;;;;5048251;28;20103;-75
2022/09/01 10:46:18;;;;;;;3.92;1.30;;;25.30;69.10;;;;;;5043342;28;20025;-74
2022/09/01 10:48:44;;;;;;;5.40;1.30;;;25.30;68.30;;;;;;5055996;28;20523;-76
2022/09/01 10:51:12;;;;;;;1.98;1.20;;;25.30;68.50;;;;;;5045935;28;20029;-75
2022/09/01 10:53:42;;;;;;;4.40;1.30;;;25.40;67.80;;;;;;5052084;28;20056;-75
2022/09/01 10:56:16;;;;;;;4.30;1.25;;;25.40;67.00;;;;;;5047367;28;20025;-76
2022/09/01 10:58:49;;;;;;;4.75;1.40;;;25.40;65.60;;;;;;5049455;28;20024;-75
2022/09/01 11:01:15;;;;;;;2.97;1.10;;;25.40;65.00;;;;;;5045658;28;20024;-75
2022/09/01 11:03:56;;;;;;;2.97;1.05;;;25.40;64.70;;;;;;5042377;28;20033;-76
2022/09/01 11:06:39;;;;;;;2.15;1.20;;;25.40;64.40;;;;;;5038979;28;20041;-75
2022/09/01 11:09:30;;;;;;;2.33;1.17;;;25.40;64.10;;;;;;5039281;28;20030;-75
2022/09/01 11:12:23;;;;;;;3.13;1.17;;;25.50;63.40;;;;;;5039392;28;20028;-75
2022/09/01 11:14:53;;;;;;;5.43;1.20;;;25.60;63.30;;;;;;5040240;28;20018;-75
2022/09/01 11:17:23;;;;;;;4.45;1.20;;;25.70;63.40;;;;;;5040709;28;20028;-75
2022/09/01 11:20:22;;;;;;;3.17;1.20;;;25.80;63.00;;;;;;5039739;28;20037;-75
2022/09/01 11:23:04;;;;;;;6.60;1.13;;;26.00;61.70;;;;;;5039763;28;20067;-75
2022/09/01 11:25:35;;;;;;;2.35;1.10;;;26.00;61.10;;;;;;5045239;28;20025;-74
2022/09/01 11:28:30;;;;;;;5.82;1.30;;;26.00;61.50;;;;;;5049793;28;20009;-74
2022/09/01 11:31:07;;;;;;;3.90;1.20;;;26.10;60.70;;;;;;5037684;28;20034;-75
2022/09/01 11:33:55;;;;;;;3.05;1.10;;;26.10;60.40;;;;;;5035254;28;20033;-74
2022/09/01 11:36:35;;;;;;;2.80;1.30;;;26.20;59.60;;;;;;5041189;28;20033;-74
2022/09/01 11:39:21;;;;;;;5.95;1.10;;;26.30;59.60;;;;;;5041679;28;20017;-74
2022/09/01 11:42:08;;;;;;;3.42;1.30;;;26.40;58.90;;;;;;5046661;28;20029;-74
2022/09/01 11:45:01;;;;;;;3.70;1.50;;;26.50;59.30;;;;;;5047799;28;20048;-74
2022/09/01 11:47:44;;;;;;;3.25;1.20;;;26.60;58.20;;;;;;5040849;28;20049;-74
2022/09/01 11:50:15;;;;;;;2.85;1.30;;;26.70;58.00;;;;;;5041340;28;20029;-74
2022/09/01 11:52:50;;;;;;;3.92;1.38;;;26.70;57.70;;;;;;5042505;28;20017;-74
2022/09/01 11:55:28;;;;;;;2.45;1.10;;;26.80;57.70;;;;;;5044127;28;20523;-75
2022/09/01 11:57:53;;;;;;;3.42;1.20;;;27.00;57.30;;;;;;5036256;28;20150;-74
2022/09/01 12:00:38;;;;;;;6.10;1.23;;;27.10;57.10;;;;;;5040990;28;20516;-73
2022/09/01 12:03:25;;;;;;;6.93;1.67;;;27.30;56.30;;;;;;5072046;28;20029;-73
2022/09/01 12:05:58;;;;;;;2.47;1.35;;;27.40;55.40;;;;;;5042115;28;20120;-73
2022/09/01 12:08:26;;;;;;;4.80;1.20;;;27.40;55.40;;;;;;5050776;28;20056;-73
2022/09/01 12:11:21;;;;;;;3.15;1.10;;;27.50;54.90;;;;;;5052376;28;20017;-73
2022/09/01 12:14:05;;;;;;;4.75;1.42;;;27.60;54.30;;;;;;5031600;28;20052;-73
2022/09/01 12:16:34;;;;;;;3.28;1.20;;;27.70;54.20;;;;;;5041608;28;20108;-73
2022/09/01 12:19:00;;;;;;;2.42;1.65;;;27.70;53.60;;;;;;5043018;28;20021;-74
2022/09/01 12:21:29;;;;;;;2.58;1.00;;;27.80;53.60;;;;;;5048484;28;20024;-74
2022/09/01 12:24:17;;;;;;;2.25;1.13;;;27.70;53.00;;;;;;5045325;28;20075;-74
2022/09/01 12:26:46;;;;;;;7.80;1.58;;;27.60;52.20;;;;;;5040523;28;20117;-75
2022/09/01 12:29:13;;;;;;;4.05;1.13;;;27.60;52.60;;;;;;5044695;28;20060;-74
2022/09/01 12:31:42;;;;;;;5.78;1.25;;;27.60;52.80;;;;;;5082640;28;20032;-74
2022/09/01 12:34:23;;;;;;;1.55;1.10;;;27.70;52.60;;;;;;5048610;28;20022;-75
2022/09/01 12:37:07;;;;;;;7.13;3.65;;;27.80;51.70;;;;;;5051015;28;20055;-75
2022/09/01 12:39:34;;;;;;;3.22;1.60;;;27.90;51.70;;;;;;5051313;28;20112;-75
2022/09/01 12:42:20;;;;;;;1.70;1.05;;;27.90;51.10;;;;;;5051000;28;20100;-74
2022/09/01 12:45:07;;;;;;;3.30;1.20;;;27.90;50.50;;;;;;5049473;28;20377;-74
2022/09/01 12:47:32;;;;;;;3.17;0.98;;;28.00;49.60;;;;;;5047843;28;20130;-74
2022/09/01 12:50:06;;;;;;;2.60;1.13;;;27.90;49.90;;;;;;5054120;28;20095;-75
2022/09/01 12:52:34;;;;;;;4.93;1.20;;;27.90;49.90;;;;;;5007561;28;20022;-74
2022/09/01 12:55:02;;;;;;;6.75;1.38;;;27.90;49.60;;;;;;5040768;28;20045;-74
2022/09/01 12:57:29;;;;;;;2.83;1.13;;;27.90;49.30;;;;;;5047809;28;20465;-75
2022/09/01 13:00:14;;;;;;;2.92;1.00;;;27.90;49.20;;;;;;5048449;28;20018;-75
2022/09/01 13:02:42;;;;;;;;;;;28.00;49.10;;;;;;5048244;28;20447;-75
2022/09/01 13:05:26;;;;;;;6.15;1.30;;;27.90;48.80;;;;;;5043972;28;20420;-74
2022/09/01 13:07:56;;;;;;;1.23;1.10;;;28.00;48.30;;;;;;5047240;28;20028;-74
2022/09/01 13:10:26;;;;;;;1.85;1.20;;;28.00;48.10;;;;;;5046850;28;20489;-75
2022/09/01 13:12:53;;;;;;;2.97;1.00;;;28.00;47.70;;;;;;5044632;28;20025;-74
2022/09/01 13:15:19;;;;;;;1.67;1.00;;;28.10;47.70;;;;;;5049843;28;20080;-74